Time;durP1;ratioP1;P1;durP2;ratioP2;P2;SDS_P1;SDS_P2;PMS_P1;PMS_P2;Temp;Humidity;BMP_temperature;BMP_pressure;BME280_temperature;BME280_humidity;BME280_pressure;Samples;Min_cycle;Max_cycle;Signal;HPM_P1;HPM_P2
2021/12/24 00:00:09;;;;;;;22.40;21.10;;;9.70;78.10;;;;;;5035181;28;20966;-72
2021/12/24 00:02:37;;;;;;;21.70;20.50;;;9.70;78.10;;;;;;5035394;28;20534;-72
2021/12/24 00:05:07;;;;;;;23.17;21.75;;;9.70;78.10;;;;;;5035258;28;20483;-72
2021/12/24 00:07:34;;;;;;;23.47;22.07;;;9.70;78.20;;;;;;5035583;28;20567;-72
2021/12/24 00:10:01;;;;;;;21.53;20.30;;;9.70;78.10;;;;;;5035320;28;20448;-72
2021/12/24 00:12:32;;;;;;;22.90;21.30;;;9.70;78.40;;;;;;5035166;28;20538;-72
2021/12/24 00:15:03;;;;;;;22.20;20.90;;;9.80;77.80;;;;;;5035195;28;20471;-72
2021/12/24 00:17:34;;;;;;;23.50;21.93;;;9.80;77.60;;;;;;5035098;28;20502;-72
2021/12/24 00:20:27;;;;;;;22.23;20.80;;;9.80;77.60;;;;;;5035106;28;20494;-72
2021/12/24 00:23:23;;;;;;;22.00;20.70;;;9.80;78.00;;;;;;5035118;28;20452;-72
2021/12/24 00:37:01;;;;;;;21.50;20.30;;;9.60;78.20;;;;;;5034671;28;20447;-72
2021/12/24 00:39:29;;;;;;;21.90;20.63;;;9.60;78.40;;;;;;5034531;28;20805;-72
2021/12/24 00:41:56;;;;;;;22.17;20.97;;;9.40;78.90;;;;;;5034448;28;20506;-72
2021/12/24 00:44:23;;;;;;;22.20;20.80;;;9.30;79.30;;;;;;5034265;28;20484;-72
2021/12/24 00:46:50;;;;;;;22.40;21.10;;;9.20;79.90;;;;;;5034612;28;20933;-72
2021/12/24 00:49:16;;;;;;;21.90;20.60;;;9.20;80.10;;;;;;5034431;28;20452;-72
2021/12/24 00:51:55;;;;;;;21.17;20.03;;;9.20;80.60;;;;;;5034586;28;20976;-72
2021/12/24 00:57:10;;;;;;;23.47;21.80;;;9.20;80.40;;;;;;5034557;28;20858;-72
2021/12/24 00:59:36;;;;;;;21.70;20.40;;;9.10;80.30;;;;;;5034307;28;20999;-72
2021/12/24 01:02:04;;;;;;;22.20;21.00;;;9.10;80.40;;;;;;5034351;28;20942;-72
2021/12/24 01:04:31;;;;;;;21.47;20.27;;;9.00;80.60;;;;;;5034002;28;20992;-72
2021/12/24 01:06:58;;;;;;;21.70;20.50;;;8.90;80.80;;;;;;5034087;28;20458;-72
2021/12/24 01:09:25;;;;;;;21.30;20.10;;;9.00;81.00;;;;;;5033921;28;20452;-72
2021/12/24 01:11:52;;;;;;;23.58;21.98;;;9.00;80.90;;;;;;5034191;28;20296;-72
2021/12/24 01:14:22;;;;;;;22.00;20.60;;;8.90;81.60;;;;;;5033948;28;20217;-72
2021/12/24 01:16:56;;;;;;;21.67;20.47;;;8.80;81.60;;;;;;5033938;28;20478;-72
2021/12/24 01:19:25;;;;;;;20.67;19.58;;;8.70;82.20;;;;;;5033799;28;20459;-72
2021/12/24 01:22:18;;;;;;;21.23;19.92;;;8.80;82.00;;;;;;5033870;28;20212;-72
2021/12/24 01:24:53;;;;;;;20.40;19.30;;;8.70;81.90;;;;;;5033632;28;20225;-72
2021/12/24 01:27:36;;;;;;;20.63;19.43;;;8.70;82.20;;;;;;5032974;28;20617;-72
2021/12/24 01:37:48;;;;;;;20.67;19.48;;;8.70;82.40;;;;;;5033498;28;20547;-72
2021/12/24 01:38:24;;;;;;;20.77;19.58;;;8.60;83.60;;;;;;5033798;28;20735;-72
2021/12/24 01:41:04;;;;;;;22.98;21.38;;;8.60;83.20;;;;;;5033355;28;20204;-72
2021/12/24 01:43:30;;;;;;;21.10;19.90;;;8.60;82.70;;;;;;5033465;28;20205;-72
2021/12/24 01:46:02;;;;;;;21.10;20.00;;;8.50;83.00;;;;;;5033360;28;20274;-72
2021/12/24 01:48:28;;;;;;;20.75;19.67;;;8.50;83.20;;;;;;5033240;28;20462;-72
2021/12/24 01:50:56;;;;;;;20.80;19.60;;;8.50;83.80;;;;;;5032978;28;20738;-72
2021/12/24 01:53:25;;;;;;;19.90;18.80;;;8.60;84.10;;;;;;5033180;28;20212;-72
2021/12/24 01:55:54;;;;;;;18.85;17.85;;;8.50;84.60;;;;;;5033349;28;20228;-72
2021/12/24 01:58:22;;;;;;;20.08;18.98;;;8.50;84.70;;;;;;5033195;28;20233;-72
2021/12/24 02:00:50;;;;;;;20.80;19.50;;;8.60;84.60;;;;;;5033142;28;20540;-71
2021/12/24 02:03:20;;;;;;;20.05;18.75;;;8.60;83.90;;;;;;5033039;28;20193;-72
2021/12/24 02:05:48;;;;;;;19.90;18.60;;;8.60;83.10;;;;;;5033022;28;20307;-72
2021/12/24 02:08:16;;;;;;;19.73;18.63;;;8.60;83.00;;;;;;5033194;28;20193;-72
2021/12/24 02:10:44;;;;;;;20.10;19.00;;;8.60;83.20;;;;;;5032772;28;20648;-72
2021/12/24 02:13:13;;;;;;;20.67;19.45;;;8.70;82.90;;;;;;5032845;28;20338;-72
2021/12/24 02:15:48;;;;;;;19.77;18.67;;;8.70;82.60;;;;;;5032820;28;20558;-72
2021/12/24 02:18:45;;;;;;;19.92;18.90;;;8.60;82.70;;;;;;5032762;28;20554;-72
2021/12/24 02:29:26;;;;;;;19.48;18.38;;;8.60;82.80;;;;;;5032671;28;20228;-72
2021/12/24 02:31:53;;;;;;;18.73;17.73;;;8.60;83.20;;;;;;5032867;28;20733;-72
2021/12/24 02:34:20;;;;;;;19.17;18.27;;;8.70;83.90;;;;;;5032509;28;20221;-72
2021/12/24 02:36:48;;;;;;;21.00;19.60;;;8.70;83.20;;;;;;5032396;28;20448;-72
2021/12/24 02:39:16;;;;;;;21.02;19.55;;;8.60;83.10;;;;;;5032069;28;20814;-72
2021/12/24 02:41:43;;;;;;;19.67;18.58;;;8.70;83.00;;;;;;5032462;28;20197;-72
2021/12/24 02:44:10;;;;;;;19.20;18.20;;;8.70;82.40;;;;;;5032441;28;20239;-72
2021/12/24 02:46:43;;;;;;;19.90;18.73;;;8.70;82.80;;;;;;5032478;28;20566;-72
2021/12/24 02:49:14;;;;;;;20.05;18.95;;;8.70;82.60;;;;;;5032285;28;20506;-72
2021/12/24 02:54:27;;;;;;;20.50;19.33;;;8.80;84.00;;;;;;5032432;28;20216;-72
2021/12/24 02:56:59;;;;;;;20.20;18.90;;;8.80;83.00;;;;;;5032513;28;20562;-72
2021/12/24 02:59:27;;;;;;;20.38;19.27;;;8.80;82.20;;;;;;5032070;28;20484;-72
2021/12/24 03:01:55;;;;;;;19.80;18.80;;;8.70;82.40;;;;;;5032513;28;20204;-72
2021/12/24 03:04:23;;;;;;;20.42;19.35;;;8.80;82.40;;;;;;5032179;28;20479;-72
2021/12/24 03:06:52;;;;;;;20.58;19.35;;;8.70;82.50;;;;;;5032302;28;20221;-72
2021/12/24 03:09:21;;;;;;;20.48;19.17;;;8.70;82.50;;;;;;5032242;28;20201;-72
2021/12/24 03:11:51;;;;;;;20.30;19.10;;;8.70;83.00;;;;;;5032469;28;20682;-72
2021/12/24 03:14:19;;;;;;;19.37;18.37;;;8.60;82.90;;;;;;5032197;28;20471;-72
2021/12/24 03:16:52;;;;;;;20.13;19.03;;;8.60;83.20;;;;;;5032227;28;20451;-72
2021/12/24 03:19:23;;;;;;;20.77;19.57;;;8.70;82.90;;;;;;5032210;28;20455;-72
2021/12/24 03:21:55;;;;;;;19.80;18.80;;;8.70;82.70;;;;;;5032572;28;20479;-72
2021/12/24 03:29:30;;;;;;;19.40;18.38;;;8.60;82.90;;;;;;5501301;22;20575;-71
2021/12/24 03:31:57;;;;;;;21.02;19.65;;;8.70;82.70;;;;;;5031917;28;20193;-72
2021/12/24 03:34:24;;;;;;;20.25;19.15;;;8.70;82.80;;;;;;5032020;28;20212;-72
2021/12/24 03:36:51;;;;;;;20.33;19.23;;;8.70;83.10;;;;;;5031983;28;20193;-73
2021/12/24 03:39:20;;;;;;;20.47;19.27;;;8.70;82.80;;;;;;5031976;28;20213;-72
2021/12/24 03:41:47;;;;;;;20.45;19.35;;;8.70;84.10;;;;;;5031814;28;20467;-72
2021/12/24 03:44:15;;;;;;;20.38;19.13;;;8.70;83.10;;;;;;5032235;28;20655;-72
2021/12/24 03:46:53;;;;;;;20.58;19.48;;;8.70;82.90;;;;;;5032097;28;20555;-72
2021/12/24 03:49:31;;;;;;;20.10;18.90;;;8.70;83.00;;;;;;5031896;28;20257;-72
2021/12/24 03:52:03;;;;;;;20.00;18.80;;;8.70;82.90;;;;;;5034692;28;20366;-72
2021/12/24 03:57:15;;;;;;;20.80;19.65;;;8.70;82.20;;;;;;5035658;28;20652;-72
2021/12/24 03:59:42;;;;;;;21.70;20.40;;;8.70;82.50;;;;;;5035165;28;20308;-72
2021/12/24 04:02:10;;;;;;;23.77;22.45;;;8.60;83.20;;;;;;5035601;28;20463;-72
2021/12/24 04:04:37;;;;;;;21.95;20.65;;;8.50;83.10;;;;;;5035355;28;20658;-72
2021/12/24 04:07:06;;;;;;;22.40;21.10;;;8.50;83.20;;;;;;5035250;28;20770;-72
2021/12/24 04:09:35;;;;;;;20.70;19.50;;;8.60;84.40;;;;;;5035100;28;20222;-72
2021/12/24 04:12:02;;;;;;;20.27;19.07;;;8.60;83.90;;;;;;5035270;28;20651;-72
2021/12/24 04:14:29;;;;;;;20.23;19.05;;;8.60;83.80;;;;;;5035383;28;20455;-72
2021/12/24 04:16:56;;;;;;;20.45;19.25;;;8.50;83.60;;;;;;5035152;28;20189;-72
2021/12/24 04:24:49;;;;;;;20.38;19.27;;;8.40;84.20;;;;;;5034948;28;20248;-72
2021/12/24 04:24:59;;;;;;;21.30;20.08;;;8.40;85.60;;;;;;5035030;28;20264;-72
2021/12/24 04:27:28;;;;;;;19.90;18.83;;;8.40;85.00;;;;;;5035132;28;20201;-72
2021/12/24 04:30:02;;;;;;;20.23;19.02;;;8.40;84.60;;;;;;5034743;28;20506;-72
2021/12/24 04:32:40;;;;;;;21.35;20.05;;;8.40;84.30;;;;;;5034950;28;20196;-72
2021/12/24 04:35:19;;;;;;;20.47;19.27;;;8.40;84.50;;;;;;5034854;28;20204;-72
2021/12/24 04:51:28;;;;;;;20.10;18.98;;;8.60;83.90;;;;;;5034693;28;20259;-72
2021/12/24 05:02:27;;;;;;;22.80;21.58;;;9.00;83.20;;;;;;5034470;28;20432;-72
2021/12/24 05:05:02;;;;;;;21.70;20.47;;;9.20;82.60;;;;;;5034312;28;20259;-72
2021/12/24 05:07:58;;;;;;;20.05;18.85;;;9.40;82.20;;;;;;5034243;28;20467;-72
2021/12/24 05:10:29;;;;;;;21.30;19.77;;;9.50;81.70;;;;;;5033720;28;20232;-72
2021/12/24 05:12:56;;;;;;;22.40;21.30;;;9.60;81.40;;;;;;5034290;28;20490;-72
2021/12/24 05:15:23;;;;;;;20.00;18.90;;;9.70;81.10;;;;;;5034071;28;20462;-72
2021/12/24 05:18:07;;;;;;;20.97;19.77;;;9.80;80.80;;;;;;5034055;28;20448;-72
2021/12/24 05:23:20;;;;;;;20.37;19.27;;;9.90;79.90;;;;;;5034101;28;20800;-72
2021/12/24 05:25:50;;;;;;;21.47;20.20;;;9.80;79.80;;;;;;5033774;28;20486;-72
2021/12/24 05:28:18;;;;;;;20.97;19.87;;;9.90;79.70;;;;;;5033916;28;20456;-72
2021/12/24 05:30:45;;;;;;;22.67;21.37;;;9.90;79.50;;;;;;5033675;28;20448;-72
2021/12/24 05:33:14;;;;;;;21.40;20.10;;;9.90;79.30;;;;;;5033698;28;21047;-72
2021/12/24 05:35:42;;;;;;;21.83;20.47;;;9.90;79.60;;;;;;5033697;28;20864;-72
2021/12/24 05:38:10;;;;;;;22.07;20.77;;;9.90;79.90;;;;;;5033338;28;20472;-72
2021/12/24 05:40:39;;;;;;;23.30;22.10;;;10.00;79.70;;;;;;5033414;28;20960;-72
2021/12/24 05:43:06;;;;;;;21.60;20.30;;;10.00;79.80;;;;;;5033758;28;20452;-72
2021/12/24 05:45:33;;;;;;;21.63;20.33;;;10.10;79.70;;;;;;5033428;28;20455;-72
2021/12/24 05:48:00;;;;;;;20.90;19.70;;;10.10;79.80;;;;;;5033476;28;20456;-72
2021/12/24 05:50:27;;;;;;;21.57;20.40;;;10.10;79.40;;;;;;5033173;28;20558;-72
2021/12/24 05:52:54;;;;;;;21.30;20.10;;;10.00;79.60;;;;;;5033453;28;20535;-72
2021/12/24 05:55:21;;;;;;;23.57;22.23;;;10.10;79.50;;;;;;5033318;28;20452;-72
2021/12/24 05:57:49;;;;;;;21.00;19.90;;;10.10;79.30;;;;;;5033334;28;20941;-72
2021/12/24 06:00:17;;;;;;;21.50;20.20;;;10.10;79.40;;;;;;5033010;28;20468;-72
2021/12/24 06:02:44;;;;;;;20.77;19.67;;;10.10;79.70;;;;;;5033194;28;20543;-72
2021/12/24 06:05:11;;;;;;;23.63;22.23;;;10.10;80.10;;;;;;5033086;28;20458;-72
2021/12/24 06:07:38;;;;;;;21.93;20.73;;;10.20;79.80;;;;;;5033083;28;20488;-72
2021/12/24 06:10:06;;;;;;;22.20;20.90;;;10.20;80.10;;;;;;5033042;28;20563;-72
2021/12/24 06:12:33;;;;;;;21.43;20.33;;;10.30;79.80;;;;;;5033072;28;20530;-72
2021/12/24 06:15:05;;;;;;;24.63;23.23;;;10.40;79.40;;;;;;5032540;28;20867;-72
2021/12/24 06:17:33;;;;;;;23.60;22.20;;;10.40;79.50;;;;;;5033245;28;20491;-72
2021/12/24 06:20:00;;;;;;;21.20;19.90;;;10.40;79.30;;;;;;5032767;28;20476;-72
2021/12/24 06:22:27;;;;;;;21.77;20.57;;;10.40;79.30;;;;;;5033013;28;20451;-72
2021/12/24 06:24:54;;;;;;;22.67;21.37;;;10.50;79.30;;;;;;5033042;28;20451;-72
2021/12/24 06:27:21;;;;;;;22.27;20.97;;;10.50;79.30;;;;;;5032795;28;20476;-72
2021/12/24 06:29:48;;;;;;;24.00;22.40;;;10.50;79.20;;;;;;5032356;28;20992;-72
2021/12/24 06:32:17;;;;;;;22.13;20.87;;;10.60;78.90;;;;;;5032742;28;20452;-73
2021/12/24 06:34:44;;;;;;;22.80;21.37;;;10.60;78.70;;;;;;5032747;28;20514;-72
2021/12/24 06:37:11;;;;;;;21.90;20.50;;;10.60;78.70;;;;;;5032613;28;20478;-72
2021/12/24 06:39:38;;;;;;;21.20;20.10;;;10.50;78.90;;;;;;5032536;28;20463;-72
2021/12/24 06:42:06;;;;;;;23.90;22.60;;;10.60;78.70;;;;;;5032416;28;20945;-72
2021/12/24 06:44:33;;;;;;;23.60;22.20;;;10.60;78.50;;;;;;5032671;28;20456;-72
2021/12/24 06:47:01;;;;;;;22.33;21.10;;;10.60;78.70;;;;;;5032455;28;20807;-72
2021/12/24 06:49:29;;;;;;;22.90;21.40;;;10.60;78.40;;;;;;5032313;28;20468;-72
2021/12/24 06:51:56;;;;;;;22.50;21.10;;;10.70;78.40;;;;;;5032531;28;20834;-72
2021/12/24 06:54:23;;;;;;;22.33;21.00;;;10.60;78.90;;;;;;5032509;28;20531;-72
2021/12/24 06:56:51;;;;;;;22.90;21.70;;;10.70;78.10;;;;;;5032478;28;20451;-72
2021/12/24 06:59:18;;;;;;;23.10;21.80;;;10.70;77.80;;;;;;5032213;28;20885;-72
2021/12/24 07:01:45;;;;;;;22.27;20.97;;;10.70;78.00;;;;;;5032526;28;20479;-72
2021/12/24 07:04:12;;;;;;;22.23;20.93;;;10.70;77.80;;;;;;5032464;28;20542;-72
2021/12/24 07:06:45;;;;;;;24.30;22.90;;;10.70;77.90;;;;;;5032391;28;20898;-72
2021/12/24 07:09:12;;;;;;;23.07;21.70;;;10.70;78.20;;;;;;5032162;28;20472;-72
2021/12/24 07:11:40;;;;;;;24.93;23.63;;;10.70;78.50;;;;;;5032401;28;20456;-72
2021/12/24 07:14:07;;;;;;;23.20;21.83;;;10.70;78.90;;;;;;5032661;28;20458;-73
2021/12/24 07:16:34;;;;;;;23.03;21.73;;;10.60;79.20;;;;;;5032309;28;20444;-72
2021/12/24 07:19:01;;;;;;;22.40;21.10;;;10.60;79.20;;;;;;5032389;28;20534;-72
2021/12/24 07:21:28;;;;;;;23.90;22.20;;;10.60;78.90;;;;;;5032341;28;20531;-72
2021/12/24 07:23:57;;;;;;;23.10;21.70;;;10.60;79.00;;;;;;5032311;28;20452;-72
2021/12/24 07:26:24;;;;;;;23.17;21.77;;;10.60;79.30;;;;;;5033977;28;20834;-72
2021/12/24 07:28:50;;;;;;;24.00;22.70;;;10.60;79.80;;;;;;5035893;28;20594;-72
2021/12/24 07:31:17;;;;;;;22.13;20.57;;;10.60;80.40;;;;;;5036007;28;20961;-72
2021/12/24 07:33:44;;;;;;;22.60;21.20;;;10.50;80.90;;;;;;5036036;28;20455;-72
2021/12/24 07:36:11;;;;;;;23.37;21.97;;;10.50;81.00;;;;;;5035997;28;20448;-72
2021/12/24 07:38:38;;;;;;;22.53;21.20;;;10.50;80.80;;;;;;5036216;28;20555;-72
2021/12/24 07:41:07;;;;;;;22.47;21.13;;;10.40;81.10;;;;;;5035953;28;20454;-72
2021/12/24 07:43:34;;;;;;;23.73;22.23;;;10.30;81.20;;;;;;5035622;28;20468;-72
2021/12/24 07:46:01;;;;;;;21.80;20.60;;;10.30;81.40;;;;;;5035813;28;20448;-72
2021/12/24 07:48:30;;;;;;;23.47;22.07;;;10.20;81.60;;;;;;5035642;28;20478;-72
2021/12/24 07:53:43;;;;;;;22.37;21.03;;;10.20;81.60;;;;;;5035862;28;20546;-72
2021/12/24 07:56:11;;;;;;;21.77;20.47;;;10.20;81.70;;;;;;5035638;28;20506;-72
2021/12/24 07:58:38;;;;;;;21.57;20.27;;;10.20;81.50;;;;;;5035530;28;20478;-72
2021/12/24 08:01:05;;;;;;;22.03;20.80;;;10.10;81.60;;;;;;5035400;28;20546;-72
2021/12/24 08:03:31;;;;;;;22.90;21.50;;;10.10;81.50;;;;;;5035339;28;20451;-72
2021/12/24 08:05:58;;;;;;;22.73;21.43;;;10.10;81.40;;;;;;5035341;28;20546;-72
2021/12/24 08:08:25;;;;;;;22.67;21.33;;;10.20;81.20;;;;;;5035298;28;20478;-72
2021/12/24 08:10:52;;;;;;;24.53;23.23;;;10.20;81.20;;;;;;5035194;28;20455;-72
2021/12/24 08:13:20;;;;;;;21.33;20.13;;;10.30;80.90;;;;;;5035314;28;20451;-72
2021/12/24 08:15:50;;;;;;;22.93;21.63;;;10.30;80.70;;;;;;5035001;28;20464;-72
2021/12/24 08:18:17;;;;;;;23.27;21.97;;;10.20;81.00;;;;;;5034996;28;20945;-72
2021/12/24 08:20:44;;;;;;;21.37;20.17;;;10.20;81.10;;;;;;5035010;28;20470;-72
2021/12/24 08:23:11;;;;;;;22.73;21.43;;;10.20;81.20;;;;;;5035155;28;20458;-72
2021/12/24 08:25:38;;;;;;;22.77;21.60;;;10.30;81.00;;;;;;5034999;28;20882;-72
2021/12/24 08:28:05;;;;;;;24.73;23.40;;;10.30;80.90;;;;;;5034624;28;20567;-72
2021/12/24 08:30:33;;;;;;;21.40;20.20;;;10.40;80.70;;;;;;5034642;28;20444;-72
2021/12/24 08:33:01;;;;;;;23.83;22.30;;;10.40;80.70;;;;;;5034935;28;20941;-72
2021/12/24 08:35:29;;;;;;;23.47;22.07;;;10.40;80.80;;;;;;5034863;28;20448;-72
2021/12/24 08:37:57;;;;;;;21.33;20.03;;;10.50;80.60;;;;;;5034190;28;20931;-72
2021/12/24 08:40:24;;;;;;;23.07;21.87;;;10.50;80.70;;;;;;5034568;28;20554;-72
2021/12/24 08:42:51;;;;;;;22.07;20.80;;;10.40;80.90;;;;;;5034554;28;21036;-72
2021/12/24 08:45:18;;;;;;;22.40;21.20;;;10.50;80.80;;;;;;5034628;28;20452;-72
2021/12/24 08:47:46;;;;;;;23.23;21.93;;;10.40;80.90;;;;;;5034426;28;20475;-72
2021/12/24 08:50:14;;;;;;;21.93;20.63;;;10.40;81.20;;;;;;5034425;28;20483;-72
2021/12/24 08:52:43;;;;;;;22.10;20.70;;;10.40;81.10;;;;;;5034659;28;20558;-72
2021/12/24 08:55:10;;;;;;;21.90;20.60;;;10.50;81.00;;;;;;5034333;28;20452;-72
2021/12/24 08:57:38;;;;;;;22.80;21.50;;;10.50;80.80;;;;;;5034461;28;20451;-72
2021/12/24 09:00:08;;;;;;;21.50;20.20;;;10.50;80.90;;;;;;5034352;28;20476;-72
2021/12/24 09:02:35;;;;;;;24.47;22.97;;;10.60;81.10;;;;;;5043052;22;20840;-72
2021/12/24 09:05:04;;;;;;;22.40;21.10;;;10.50;81.00;;;;;;5034214;28;20451;-72
2021/12/24 09:07:31;;;;;;;21.73;20.50;;;10.60;81.00;;;;;;5034019;28;20468;-72
2021/12/24 09:09:57;;;;;;;18.80;17.87;;;10.60;81.20;;;;;;5033930;28;21003;-72
2021/12/24 09:12:25;;;;;;;22.13;20.83;;;10.60;81.50;;;;;;5034280;28;20534;-72
2021/12/24 09:14:53;;;;;;;21.20;20.00;;;10.60;81.60;;;;;;5034194;28;20458;-72
2021/12/24 09:17:21;;;;;;;22.27;21.00;;;10.60;81.60;;;;;;5034013;28;21004;-72
2021/12/24 09:19:50;;;;;;;22.70;21.30;;;10.60;81.90;;;;;;5033779;28;20472;-72
2021/12/24 09:22:22;;;;;;;22.90;21.50;;;10.60;81.90;;;;;;5034059;28;20452;-72
2021/12/24 09:24:53;;;;;;;21.90;20.40;;;10.60;81.70;;;;;;5034104;28;20452;-72
2021/12/24 09:27:20;;;;;;;22.47;21.13;;;10.60;82.10;;;;;;5033969;28;20553;-72
2021/12/24 09:29:47;;;;;;;23.20;21.77;;;10.60;82.30;;;;;;5033728;28;20475;-72
2021/12/24 09:32:14;;;;;;;24.97;23.57;;;10.60;82.10;;;;;;5033741;28;20455;-72
2021/12/24 09:34:41;;;;;;;21.20;20.00;;;10.60;82.50;;;;;;5033796;28;20448;-72
2021/12/24 09:37:08;;;;;;;21.07;19.93;;;10.60;82.70;;;;;;5033457;28;20452;-72
2021/12/24 09:39:36;;;;;;;20.33;19.30;;;10.60;82.90;;;;;;5033450;28;20482;-72
2021/12/24 09:42:05;;;;;;;21.73;20.17;;;10.60;83.30;;;;;;5033499;28;20456;-72
2021/12/24 09:44:32;;;;;;;23.63;22.23;;;10.60;83.70;;;;;;5033641;28;20532;-72
2021/12/24 09:46:59;;;;;;;23.70;22.40;;;10.50;85.00;;;;;;5033459;28;20482;-72
2021/12/24 09:49:25;;;;;;;21.47;19.80;;;10.50;85.10;;;;;;5032444;28;20475;-72
2021/12/24 09:51:53;;;;;;;21.60;20.40;;;10.50;85.30;;;;;;5033478;28;20455;-72
2021/12/24 09:54:22;;;;;;;20.20;19.10;;;10.50;85.30;;;;;;5033407;28;20456;-72
2021/12/24 09:56:51;;;;;;;20.73;19.53;;;10.50;86.20;;;;;;5033402;28;20448;-72
2021/12/24 09:59:19;;;;;;;20.90;19.70;;;10.60;85.20;;;;;;5033064;28;20467;-72
2021/12/24 10:01:54;;;;;;;21.40;20.20;;;10.50;85.30;;;;;;5033145;28;20467;-72
2021/12/24 10:04:23;;;;;;;20.67;19.37;;;10.50;85.50;;;;;;5033174;28;20455;-72
2021/12/24 10:06:51;;;;;;;21.77;20.57;;;10.50;85.60;;;;;;5032976;28;20505;-72
2021/12/24 10:09:20;;;;;;;22.10;20.90;;;10.50;85.60;;;;;;5032779;28;20471;-72
2021/12/24 10:11:52;;;;;;;21.17;19.97;;;10.50;86.30;;;;;;5033045;28;20546;-72
2021/12/24 10:14:21;;;;;;;19.47;18.30;;;10.60;86.00;;;;;;5032875;28;20971;-72
2021/12/24 10:16:50;;;;;;;20.90;19.70;;;10.50;86.10;;;;;;5032988;28;20510;-72
2021/12/24 10:19:19;;;;;;;21.40;19.90;;;10.60;85.90;;;;;;5032693;28;20472;-72
2021/12/24 10:21:48;;;;;;;23.37;22.07;;;10.60;85.70;;;;;;5032829;28;20487;-72
2021/12/24 10:24:17;;;;;;;20.40;19.10;;;10.60;85.60;;;;;;5032781;28;20959;-72
2021/12/24 10:26:47;;;;;;;20.73;19.63;;;10.50;85.60;;;;;;5032728;28;20466;-72
2021/12/24 10:29:19;;;;;;;22.33;21.00;;;10.60;85.80;;;;;;5032431;28;20477;-72
2021/12/24 10:31:48;;;;;;;22.10;20.90;;;10.50;86.30;;;;;;5032890;28;20491;-72
2021/12/24 10:34:21;;;;;;;20.57;19.37;;;10.50;86.00;;;;;;5032688;28;20956;-72
2021/12/24 10:37:11;;;;;;;21.03;19.83;;;10.60;86.30;;;;;;5032587;28;20491;-72
2021/12/24 10:39:41;;;;;;;20.73;19.40;;;10.50;86.20;;;;;;5028394;28;20530;-72
2021/12/24 10:42:12;;;;;;;21.83;20.23;;;10.60;86.20;;;;;;5032633;28;20956;-72
2021/12/24 10:44:42;;;;;;;21.30;20.00;;;10.60;85.80;;;;;;5032805;28;20452;-72
2021/12/24 10:47:16;;;;;;;21.67;20.33;;;10.60;85.50;;;;;;5032522;28;20608;-72
2021/12/24 10:50:13;;;;;;;21.40;20.23;;;10.70;85.20;;;;;;5032339;28;20468;-72
2021/12/24 10:55:37;;;;;;;18.80;17.80;;;10.60;85.40;;;;;;5032644;28;20511;-72
2021/12/24 10:58:06;;;;;;;20.73;19.57;;;10.60;85.30;;;;;;5032529;28;20956;-72
2021/12/24 11:00:38;;;;;;;20.80;19.50;;;10.60;85.20;;;;;;5034423;28;20810;-72
2021/12/24 11:03:07;;;;;;;20.40;19.30;;;10.60;85.30;;;;;;5036597;28;20455;-72
2021/12/24 11:05:39;;;;;;;20.97;19.77;;;10.60;85.00;;;;;;5036381;28;20447;-72
2021/12/24 11:08:09;;;;;;;21.13;19.93;;;10.60;85.10;;;;;;5036282;28;20571;-72
2021/12/24 11:10:38;;;;;;;20.80;19.70;;;10.50;85.10;;;;;;5036183;28;20816;-72
2021/12/24 11:13:10;;;;;;;20.20;19.10;;;10.60;85.20;;;;;;5036373;28;20452;-72
2021/12/24 11:15:41;;;;;;;20.00;19.00;;;10.50;85.20;;;;;;5036571;28;20464;-72
2021/12/24 11:18:13;;;;;;;20.20;19.10;;;10.60;85.30;;;;;;5036249;28;20452;-72
2021/12/24 11:20:40;;;;;;;21.57;20.47;;;10.60;84.80;;;;;;5036085;28;20448;-72
2021/12/24 11:23:09;;;;;;;20.20;19.00;;;10.50;85.90;;;;;;5036142;28;20455;-72
2021/12/24 11:25:39;;;;;;;19.97;18.77;;;10.50;85.60;;;;;;5036030;28;20464;-72
2021/12/24 11:28:08;;;;;;;19.70;18.70;;;10.50;85.50;;;;;;5035904;28;20502;-72
2021/12/24 11:30:37;;;;;;;20.23;19.13;;;10.50;85.30;;;;;;5035998;28;20451;-72
2021/12/24 11:33:05;;;;;;;19.77;18.77;;;10.50;85.30;;;;;;5036172;28;20916;-72
2021/12/24 11:35:33;;;;;;;20.73;19.60;;;10.60;85.20;;;;;;5035914;28;20480;-71
2021/12/24 11:38:02;;;;;;;19.70;18.70;;;10.70;85.60;;;;;;5035682;28;20949;-72
2021/12/24 11:40:29;;;;;;;19.70;18.70;;;10.80;85.20;;;;;;5035782;28;20452;-72
2021/12/24 11:42:59;;;;;;;19.70;18.60;;;10.80;84.80;;;;;;5035807;28;20447;-72
2021/12/24 11:45:28;;;;;;;19.70;18.60;;;10.70;85.00;;;;;;5035845;28;20452;-72
2021/12/24 11:47:55;;;;;;;19.53;18.50;;;10.70;84.80;;;;;;5035814;28;20480;-72
2021/12/24 11:50:24;;;;;;;18.73;17.57;;;10.60;85.60;;;;;;5035476;28;20530;-72
2021/12/24 11:52:54;;;;;;;20.00;18.90;;;10.70;85.50;;;;;;5035547;28;20454;-72
2021/12/24 11:55:21;;;;;;;20.37;19.17;;;10.70;85.10;;;;;;5035856;28;20491;-72
2021/12/24 11:57:54;;;;;;;19.80;18.60;;;10.70;85.30;;;;;;5035679;28;20535;-72
2021/12/24 12:00:26;;;;;;;19.17;18.17;;;10.90;84.70;;;;;;5035235;28;20555;-72
2021/12/24 12:02:53;;;;;;;21.20;20.10;;;10.90;85.00;;;;;;5035138;28;20459;-72
2021/12/24 12:05:28;;;;;;;21.60;20.50;;;10.90;84.70;;;;;;5035370;28;20462;-72
2021/12/24 12:08:33;;;;;;;20.00;19.00;;;11.10;84.40;;;;;;5035280;28;20478;-72
2021/12/24 12:11:02;;;;;;;21.70;20.60;;;11.30;83.40;;;;;;5034979;28;20460;-72
2021/12/24 12:13:41;;;;;;;20.93;19.83;;;11.30;83.30;;;;;;5035046;28;20877;-72
2021/12/24 12:16:09;;;;;;;21.23;20.03;;;11.50;82.90;;;;;;5035320;28;21036;-72
2021/12/24 12:18:44;;;;;;;21.50;20.40;;;11.50;83.10;;;;;;5035119;28;20541;-73
2021/12/24 12:21:15;;;;;;;20.80;19.70;;;11.50;82.70;;;;;;5035018;28;20542;-72
2021/12/24 12:24:56;;;;;;;20.77;19.63;;;11.50;82.70;;;;;;5035122;28;20459;-72
2021/12/24 12:26:43;;;;;;;19.90;18.87;;;11.60;83.00;;;;;;5035070;28;20448;-72
2021/12/24 12:29:22;;;;;;;20.10;19.10;;;11.70;81.70;;;;;;5034732;28;20557;-73
2021/12/24 12:31:52;;;;;;;20.83;19.73;;;11.70;82.20;;;;;;5035085;28;20457;-72
2021/12/24 12:34:51;;;;;;;22.33;21.00;;;11.70;82.00;;;;;;5034931;28;20540;-72
2021/12/24 12:37:21;;;;;;;21.60;20.40;;;11.80;81.60;;;;;;5034675;28;20456;-72
2021/12/24 12:39:50;;;;;;;20.50;19.30;;;11.80;81.30;;;;;;5034637;28;21068;-72
2021/12/24 12:42:18;;;;;;;19.97;18.97;;;11.80;81.20;;;;;;5034555;28;20961;-72
2021/12/24 12:44:48;;;;;;;22.07;20.87;;;11.70;81.60;;;;;;5034876;28;20833;-72
2021/12/24 12:47:17;;;;;;;21.27;20.13;;;11.70;82.00;;;;;;5034917;28;20475;-72
2021/12/24 12:49:45;;;;;;;20.50;19.30;;;11.70;81.80;;;;;;5034310;28;21014;-72
2021/12/24 12:52:24;;;;;;;22.40;21.30;;;11.70;81.70;;;;;;5034593;28;21002;-72
2021/12/24 12:54:52;;;;;;;20.77;19.67;;;11.80;81.70;;;;;;5034658;28;20456;-72
2021/12/24 12:57:30;;;;;;;21.07;19.77;;;11.90;81.70;;;;;;5034480;28;20534;-72
2021/12/24 13:00:20;;;;;;;19.50;18.50;;;11.90;81.30;;;;;;5034236;28;20478;-72
2021/12/24 13:03:10;;;;;;;20.67;19.60;;;11.80;81.40;;;;;;5034413;28;20455;-72
2021/12/24 13:06:04;;;;;;;21.00;20.00;;;11.70;81.70;;;;;;5034364;28;20538;-72
2021/12/24 13:08:34;;;;;;;20.60;19.50;;;11.70;82.20;;;;;;5034251;28;20484;-72
2021/12/24 13:11:04;;;;;;;19.80;18.80;;;11.70;82.20;;;;;;5034178;28;20452;-72
2021/12/24 13:13:41;;;;;;;20.13;19.23;;;11.70;81.80;;;;;;5034218;28;20448;-72
2021/12/24 13:16:16;;;;;;;19.80;18.70;;;11.60;81.60;;;;;;5034129;28;20534;-72
2021/12/24 13:18:47;;;;;;;18.73;17.93;;;11.60;81.90;;;;;;5034060;28;20554;-72
2021/12/24 13:23:59;;;;;;;19.90;18.90;;;11.60;81.60;;;;;;5032978;28;20439;-72
2021/12/24 13:26:34;;;;;;;21.50;20.40;;;11.50;81.80;;;;;;5034009;28;20953;-73
2021/12/24 13:29:06;;;;;;;18.60;17.80;;;11.50;82.00;;;;;;5033826;28;20480;-72
2021/12/24 13:31:33;;;;;;;21.03;19.93;;;11.40;82.50;;;;;;5033906;28;20999;-72
2021/12/24 13:34:00;;;;;;;20.20;19.20;;;11.50;82.30;;;;;;5033801;28;20488;-72
2021/12/24 13:36:30;;;;;;;21.07;19.97;;;11.50;82.40;;;;;;5033425;28;20457;-73
2021/12/24 13:39:09;;;;;;;19.40;18.40;;;11.50;82.40;;;;;;5033691;28;20472;-72
2021/12/24 13:41:36;;;;;;;24.87;23.07;;;11.40;82.60;;;;;;5033816;28;20812;-72
2021/12/24 13:44:03;;;;;;;21.30;20.20;;;11.40;82.70;;;;;;5033601;28;20460;-72
2021/12/24 13:46:33;;;;;;;19.90;18.90;;;11.30;82.80;;;;;;5033516;28;20540;-72
2021/12/24 13:49:22;;;;;;;21.23;20.23;;;11.40;82.50;;;;;;5033494;28;20563;-72
2021/12/24 13:54:37;;;;;;;20.17;19.07;;;11.40;82.50;;;;;;5033443;28;20447;-72
2021/12/24 13:57:07;;;;;;;20.03;19.03;;;11.30;82.70;;;;;;5033601;28;20459;-72
2021/12/24 13:59:35;;;;;;;20.30;19.20;;;11.20;82.90;;;;;;5033028;28;20510;-72
2021/12/24 14:02:08;;;;;;;20.63;19.63;;;11.20;83.00;;;;;;5033240;28;20619;-72